Time;durP1;ratioP1;P1;durP2;ratioP2;P2;SDS_P1;SDS_P2;PMS_P1;PMS_P2;Temp;Humidity;BMP_temperature;BMP_pressure;BME280_temperature;BME280_humidity;BME280_pressure;Samples;Min_cycle;Max_cycle;Signal;HPM_P1;HPM_P2
2021/08/15 00:01:39;;;;;;;12.63;9.20;;;20.20;63.10;;;;;;5055745;28;20033;-32
2021/08/15 00:04:04;;;;;;;12.95;9.23;;;20.20;63.20;;;;;;5055915;28;20028;-36
2021/08/15 00:06:30;;;;;;;11.60;8.80;;;20.10;63.20;;;;;;5055711;28;20083;-36
2021/08/15 00:08:55;;;;;;;12.70;9.20;;;20.10;63.30;;;;;;5056134;28;20340;-37
2021/08/15 00:11:21;;;;;;;12.35;8.95;;;20.10;63.30;;;;;;5056330;28;20029;-36
2021/08/15 00:13:47;;;;;;;16.05;10.43;;;20.10;63.40;;;;;;5055750;28;20078;-32
2021/08/15 00:16:12;;;;;;;12.50;8.80;;;20.10;63.50;;;;;;5055665;28;20057;-32
2021/08/15 00:18:39;;;;;;;13.45;9.48;;;20.00;63.50;;;;;;5055902;28;20037;-36
2021/08/15 00:21:04;;;;;;;10.45;8.95;;;20.00;63.50;;;;;;5056240;28;20341;-32
2021/08/15 00:23:30;;;;;;;13.35;9.18;;;20.00;63.60;;;;;;5055821;28;20026;-35
2021/08/15 00:25:56;;;;;;;13.60;9.90;;;20.00;63.60;;;;;;5056024;28;20291;-36
2021/08/15 00:28:21;;;;;;;11.98;9.65;;;20.00;63.70;;;;;;5055574;28;20083;-32
2021/08/15 00:30:47;;;;;;;15.52;10.30;;;20.00;63.70;;;;;;5055548;28;20052;-33
2021/08/15 00:33:13;;;;;;;12.50;9.25;;;20.00;63.80;;;;;;5055734;28;20036;-36
2021/08/15 00:35:38;;;;;;;12.30;9.52;;;19.90;63.80;;;;;;5055979;28;20315;-36
2021/08/15 00:38:04;;;;;;;13.85;8.95;;;19.90;64.00;;;;;;5055727;28;20425;-36
2021/08/15 00:40:30;;;;;;;12.57;9.10;;;19.90;64.10;;;;;;5055755;28;20299;-32
2021/08/15 00:42:55;;;;;;;12.30;9.13;;;19.90;64.10;;;;;;5055231;28;20120;-35
2021/08/15 00:45:21;;;;;;;12.38;8.73;;;19.90;64.20;;;;;;5059194;28;20033;-32
2021/08/15 00:47:47;;;;;;;12.35;9.05;;;20.00;64.30;;;;;;5059207;28;20413;-36
2021/08/15 00:50:12;;;;;;;12.73;8.98;;;19.90;64.30;;;;;;5058317;28;20432;-32
2021/08/15 00:52:38;;;;;;;13.05;9.38;;;19.90;64.50;;;;;;5059081;28;20041;-36
2021/08/15 00:55:08;;;;;;;12.35;8.90;;;19.90;64.70;;;;;;5059331;28;20409;-33
2021/08/15 00:57:40;;;;;;;13.57;8.77;;;19.90;64.60;;;;;;5059038;28;20044;-33
2021/08/15 01:00:08;;;;;;;12.15;8.68;;;19.80;64.50;;;;;;5059345;28;20047;-32
2021/08/15 01:02:46;;;;;;;9.13;8.20;;;19.80;64.50;;;;;;5058929;28;20171;-36
2021/08/15 01:05:12;;;;;;;11.27;8.43;;;19.90;64.40;;;;;;5058738;28;20062;-32
2021/08/15 01:07:40;;;;;;;12.45;7.65;;;19.90;64.40;;;;;;5058963;28;20032;-35
2021/08/15 01:10:06;;;;;;;12.02;8.25;;;19.90;64.40;;;;;;5059304;28;20032;-33
2021/08/15 01:12:32;;;;;;;14.82;8.40;;;19.90;64.60;;;;;;5058675;28;20029;-35
2021/08/15 01:14:59;;;;;;;10.80;8.13;;;19.90;64.60;;;;;;5058927;28;20044;-36
2021/08/15 01:17:26;;;;;;;13.30;9.02;;;19.90;64.70;;;;;;5058797;28;20040;-32
2021/08/15 01:19:56;;;;;;;10.68;7.85;;;19.90;64.70;;;;;;5059145;28;20033;-32
2021/08/15 01:22:26;;;;;;;13.95;8.52;;;19.90;64.70;;;;;;5058606;28;20033;-32
2021/08/15 01:24:53;;;;;;;12.00;8.70;;;19.90;64.80;;;;;;5058915;28;20465;-36
2021/08/15 01:27:23;;;;;;;11.68;8.75;;;19.80;64.80;;;;;;5058672;28;20437;-35
2021/08/15 01:29:49;;;;;;;13.60;9.32;;;19.80;64.90;;;;;;5058982;28;20460;-35
2021/08/15 01:32:20;;;;;;;10.77;8.48;;;19.80;65.00;;;;;;5058674;28;20039;-36
2021/08/15 01:34:46;;;;;;;11.60;9.57;;;19.70;65.10;;;;;;5058806;28;20029;-36
2021/08/15 01:37:11;;;;;;;10.95;8.80;;;19.70;65.20;;;;;;5058254;28;20372;-35
2021/08/15 01:39:41;;;;;;;14.02;8.90;;;19.70;65.30;;;;;;5058493;28;20090;-35
2021/08/15 01:42:07;;;;;;;13.43;9.47;;;19.70;65.40;;;;;;5058189;28;20029;-33
2021/08/15 01:44:33;;;;;;;13.88;9.35;;;19.60;65.40;;;;;;5058335;28;20098;-32
2021/08/15 01:46:58;;;;;;;13.98;9.93;;;19.60;65.60;;;;;;5058459;28;20033;-32
2021/08/15 01:49:24;;;;;;;12.02;9.40;;;19.60;65.70;;;;;;5058278;28;20433;-32
2021/08/15 01:51:50;;;;;;;11.25;9.00;;;19.50;65.70;;;;;;5058209;28;20036;-33
2021/08/15 01:54:16;;;;;;;11.30;9.07;;;19.50;65.80;;;;;;5058308;28;20040;-32
2021/08/15 01:56:41;;;;;;;11.32;8.95;;;19.40;65.80;;;;;;5058171;28;20107;-36
2021/08/15 01:59:07;;;;;;;10.68;8.45;;;19.40;65.90;;;;;;5058209;28;20032;-36
2021/08/15 02:01:33;;;;;;;16.08;10.15;;;19.40;65.90;;;;;;5058021;28;20033;-35
2021/08/15 02:03:58;;;;;;;14.50;10.27;;;19.40;66.00;;;;;;5057794;28;20025;-35
2021/08/15 02:06:24;;;;;;;12.40;9.55;;;19.40;66.00;;;;;;5058370;28;20162;-32
2021/08/15 02:08:51;;;;;;;10.68;8.98;;;19.30;65.90;;;;;;5058111;28;20048;-33
2021/08/15 02:11:17;;;;;;;13.15;9.80;;;19.30;65.90;;;;;;5058285;28;20025;-33
2021/08/15 02:13:43;;;;;;;13.88;8.68;;;19.30;66.00;;;;;;5057773;28;20033;-36
2021/08/15 02:16:09;;;;;;;11.45;8.85;;;19.20;65.90;;;;;;5057704;28;20052;-36
2021/08/15 02:18:34;;;;;;;13.43;9.10;;;19.20;65.80;;;;;;5057705;28;20090;-32
2021/08/15 02:21:00;;;;;;;12.98;9.88;;;19.20;65.90;;;;;;5056868;28;20025;-35
2021/08/15 02:23:26;;;;;;;14.40;10.38;;;19.20;66.00;;;;;;5057819;28;20043;-33
2021/08/15 02:25:53;;;;;;;12.77;10.35;;;19.20;65.90;;;;;;5057762;28;20056;-36
2021/08/15 02:28:18;;;;;;;15.30;10.05;;;19.10;65.90;;;;;;5057371;28;20029;-32
2021/08/15 02:30:44;;;;;;;14.57;10.70;;;19.10;65.90;;;;;;5057854;28;20028;-36
2021/08/15 02:33:10;;;;;;;14.98;10.75;;;19.10;66.00;;;;;;5057644;28;20025;-33
2021/08/15 02:35:36;;;;;;;14.32;9.73;;;19.00;66.00;;;;;;5057615;28;20056;-32
2021/08/15 02:38:02;;;;;;;13.25;9.75;;;19.00;66.10;;;;;;5057419;28;20108;-36
2021/08/15 02:40:27;;;;;;;16.25;10.65;;;19.00;66.20;;;;;;5057575;28;20409;-33
2021/08/15 02:42:54;;;;;;;14.30;10.30;;;19.00;66.20;;;;;;5057226;28;20119;-32
2021/08/15 02:45:22;;;;;;;13.68;10.68;;;19.00;66.30;;;;;;5057156;28;20033;-32
2021/08/15 02:47:47;;;;;;;13.13;9.57;;;19.00;66.90;;;;;;5057139;28;20025;-36
2021/08/15 02:50:15;;;;;;;14.00;10.38;;;19.00;66.40;;;;;;5057327;28;20036;-32
2021/08/15 02:52:41;;;;;;;17.13;10.45;;;18.90;66.50;;;;;;5056960;28;20033;-37
2021/08/15 02:55:07;;;;;;;14.15;10.20;;;18.90;66.60;;;;;;5057216;28;20119;-34
2021/08/15 02:57:33;;;;;;;14.50;9.15;;;18.90;66.70;;;;;;5057029;28;20033;-32
2021/08/15 02:59:59;;;;;;;17.40;10.18;;;18.90;66.60;;;;;;5057200;28;20039;-32
2021/08/15 03:02:24;;;;;;;16.70;9.88;;;18.90;66.70;;;;;;5057117;28;20320;-33
2021/08/15 03:04:50;;;;;;;14.82;10.32;;;18.90;66.70;;;;;;5057061;28;20025;-32
2021/08/15 03:07:17;;;;;;;15.88;11.02;;;18.80;66.70;;;;;;5056257;28;20363;-36
2021/08/15 03:09:46;;;;;;;12.07;9.95;;;18.80;66.90;;;;;;5056871;28;20029;-32
2021/08/15 03:12:12;;;;;;;14.43;9.75;;;18.80;67.00;;;;;;5056610;28;20029;-36
2021/08/15 03:14:38;;;;;;;16.92;9.38;;;18.80;67.20;;;;;;5056798;28;20029;-32
2021/08/15 03:17:06;;;;;;;13.35;9.70;;;18.80;67.20;;;;;;5056374;28;20437;-32
2021/08/15 03:19:32;;;;;;;19.08;10.13;;;18.80;67.30;;;;;;5056705;28;20029;-36
2021/08/15 03:21:57;;;;;;;13.40;9.55;;;18.80;67.40;;;;;;5056390;28;20041;-36
2021/08/15 03:24:23;;;;;;;15.02;10.38;;;18.80;67.40;;;;;;5056455;28;20025;-33
2021/08/15 03:26:49;;;;;;;15.45;10.18;;;18.80;67.40;;;;;;5056121;28;20178;-36
2021/08/15 03:29:16;;;;;;;13.40;9.48;;;18.80;67.60;;;;;;5056595;28;20436;-32
2021/08/15 03:31:44;;;;;;;13.43;9.82;;;18.80;67.60;;;;;;5056037;28;20421;-34
2021/08/15 03:34:11;;;;;;;18.80;10.82;;;18.80;67.70;;;;;;5056610;28;20094;-32
2021/08/15 03:36:36;;;;;;;14.30;9.70;;;18.80;67.80;;;;;;5056342;28;20040;-32
2021/08/15 03:39:03;;;;;;;15.27;11.32;;;18.80;68.00;;;;;;5056065;28;20441;-36
2021/08/15 03:41:29;;;;;;;14.98;9.73;;;18.80;68.10;;;;;;5055984;28;20025;-36
2021/08/15 03:43:55;;;;;;;15.13;10.38;;;18.90;68.10;;;;;;5055823;28;20059;-37
2021/08/15 03:46:21;;;;;;;13.55;10.18;;;18.90;68.30;;;;;;5055786;28;20036;-36
2021/08/15 03:48:47;;;;;;;15.77;11.68;;;18.90;68.30;;;;;;5056068;28;20021;-36
2021/08/15 03:51:12;;;;;;;20.13;10.43;;;19.00;68.30;;;;;;5056463;28;20066;-33
2021/08/15 03:53:39;;;;;;;18.75;10.80;;;19.00;68.30;;;;;;5055909;28;20128;-36
2021/08/15 03:56:04;;;;;;;18.17;11.60;;;19.10;68.40;;;;;;5056382;28;20029;-36
2021/08/15 03:58:30;;;;;;;18.23;11.73;;;19.10;68.40;;;;;;5055923;28;20162;-33
2021/08/15 04:00:56;;;;;;;13.65;11.15;;;19.20;68.40;;;;;;5056428;28;20029;-36
2021/08/15 04:03:22;;;;;;;17.73;11.80;;;19.30;68.40;;;;;;5055651;28;20036;-36
2021/08/15 04:05:48;;;;;;;20.92;12.40;;;19.30;68.30;;;;;;5055829;28;20033;-33
2021/08/15 04:08:14;;;;;;;16.70;12.05;;;19.30;68.20;;;;;;5055704;28;20417;-37
2021/08/15 04:10:39;;;;;;;17.52;12.13;;;19.40;68.20;;;;;;5055594;28;20040;-36
2021/08/15 04:13:05;;;;;;;19.80;14.07;;;19.50;68.30;;;;;;5055585;28;20033;-36
2021/08/15 04:15:31;;;;;;;16.70;13.27;;;19.60;68.40;;;;;;5055753;28;20132;-36
2021/08/15 04:17:57;;;;;;;16.90;12.32;;;19.60;68.40;;;;;;5057172;28;20033;-33
2021/08/15 04:20:23;;;;;;;16.13;12.25;;;19.70;68.30;;;;;;5059670;28;20032;-36
2021/08/15 04:22:49;;;;;;;20.60;14.10;;;19.80;68.30;;;;;;5059689;28;20462;-37
2021/08/15 04:25:15;;;;;;;19.10;13.27;;;19.90;68.60;;;;;;5059789;28;20039;-36
2021/08/15 04:27:41;;;;;;;19.90;13.65;;;20.00;68.60;;;;;;5059606;28;20453;-33
2021/08/15 04:30:08;;;;;;;24.10;14.35;;;20.10;68.60;;;;;;5059630;28;20467;-33
2021/08/15 04:32:35;;;;;;;21.25;13.27;;;20.20;68.50;;;;;;5059358;28;20025;-36
2021/08/15 04:35:01;;;;;;;21.75;13.77;;;20.30;68.40;;;;;;5059446;28;20033;-33
2021/08/15 04:37:26;;;;;;;20.30;13.25;;;20.40;68.20;;;;;;5059487;28;20033;-37
2021/08/15 04:39:53;;;;;;;21.95;13.68;;;20.60;68.30;;;;;;5059730;28;20328;-37
2021/08/15 04:42:19;;;;;;;20.40;13.95;;;20.70;68.40;;;;;;5059314;28;20294;-37
2021/08/15 04:44:45;;;;;;;20.40;13.55;;;20.70;68.40;;;;;;5059560;28;20033;-33
2021/08/15 04:47:11;;;;;;;19.45;13.55;;;20.90;68.50;;;;;;5058963;28;20021;-37
2021/08/15 04:49:36;;;;;;;18.90;13.80;;;21.00;68.60;;;;;;5059079;28;20075;-33
2021/08/15 04:52:03;;;;;;;30.23;14.80;;;21.10;68.50;;;;;;5059136;28;20040;-35
2021/08/15 04:54:28;;;;;;;20.75;12.63;;;21.30;68.50;;;;;;5059331;28;20037;-33
2021/08/15 04:56:55;;;;;;;19.75;11.77;;;21.40;68.10;;;;;;5059157;28;20182;-33
2021/08/15 04:59:21;;;;;;;16.80;9.77;;;21.50;68.50;;;;;;5059423;28;20041;-37
2021/08/15 05:01:47;;;;;;;8.85;6.88;;;21.60;66.60;;;;;;5059022;28;20036;-36
2021/08/15 05:04:13;;;;;;;12.32;7.30;;;21.70;64.00;;;;;;5058830;28;20033;-33
2021/08/15 05:06:38;;;;;;;13.05;8.05;;;21.90;63.20;;;;;;5058806;28;20411;-34
2021/08/15 05:09:04;;;;;;;10.88;6.85;;;22.00;63.50;;;;;;5059021;28;20321;-37
2021/08/15 05:11:30;;;;;;;9.88;7.55;;;22.10;62.70;;;;;;5058777;28;20369;-33
2021/08/15 05:13:56;;;;;;;12.30;8.82;;;22.20;61.80;;;;;;5059221;28;20017;-33
2021/08/15 05:16:22;;;;;;;14.80;10.85;;;22.30;61.40;;;;;;5058665;28;20114;-33
2021/08/15 05:18:48;;;;;;;16.25;11.05;;;22.40;61.60;;;;;;5058620;28;20395;-33
2021/08/15 05:21:14;;;;;;;12.23;10.57;;;22.50;61.50;;;;;;5059124;28;20025;-33
2021/08/15 05:23:40;;;;;;;16.50;10.35;;;22.60;61.80;;;;;;5057827;28;20029;-33
2021/08/15 05:26:06;;;;;;;13.48;10.38;;;22.70;61.40;;;;;;5058430;28;20047;-37
2021/08/15 05:28:32;;;;;;;13.60;9.93;;;22.90;60.50;;;;;;5058142;28;20111;-34
2021/08/15 05:30:58;;;;;;;17.20;10.20;;;23.00;60.90;;;;;;5058291;28;20025;-37
2021/08/15 05:33:23;;;;;;;15.93;10.95;;;23.10;60.00;;;;;;5058375;28;20417;-34
2021/08/15 05:35:49;;;;;;;21.17;11.50;;;23.10;59.90;;;;;;5058603;28;20471;-37
2021/08/15 05:38:15;;;;;;;20.80;10.07;;;23.20;60.00;;;;;;5058371;28;20044;-37
2021/08/15 05:40:40;;;;;;;14.77;10.60;;;23.30;59.20;;;;;;5058456;28;20420;-33
2021/08/15 05:43:06;;;;;;;18.30;11.60;;;23.40;58.90;;;;;;5057907;28;20036;-33
2021/08/15 05:45:32;;;;;;;18.10;12.38;;;23.50;58.90;;;;;;5058113;28;20068;-37
2021/08/15 05:47:57;;;;;;;16.10;9.98;;;23.60;59.10;;;;;;5058058;28;20466;-38
2021/08/15 05:50:23;;;;;;;13.55;7.68;;;23.60;58.50;;;;;;5058165;28;20376;-34
2021/08/15 05:52:49;;;;;;;12.15;8.85;;;23.70;57.30;;;;;;5058220;28;20056;-37
2021/08/15 05:55:14;;;;;;;10.25;8.07;;;23.80;57.10;;;;;;5058038;28;20032;-37
2021/08/15 05:57:40;;;;;;;10.75;8.10;;;23.90;56.10;;;;;;5057628;28;20034;-34
2021/08/15 06:00:07;;;;;;;8.68;6.32;;;23.90;55.40;;;;;;5058286;28;20029;-38
2021/08/15 06:02:33;;;;;;;9.68;6.35;;;24.00;54.80;;;;;;5057937;28;20148;-33
2021/08/15 06:04:58;;;;;;;12.07;6.07;;;24.10;54.30;;;;;;5057920;28;20029;-33
2021/08/15 06:07:24;;;;;;;8.68;6.88;;;24.10;54.80;;;;;;5057579;28;20104;-34
2021/08/15 06:09:50;;;;;;;10.05;8.02;;;24.20;55.10;;;;;;5057959;28;20060;-44
2021/08/15 06:12:15;;;;;;;9.45;6.85;;;24.30;55.20;;;;;;5057516;28;20036;-36
2021/08/15 06:14:41;;;;;;;9.25;6.80;;;24.30;55.30;;;;;;5057901;28;20048;-36
2021/08/15 06:17:07;;;;;;;11.63;6.50;;;24.40;54.60;;;;;;5057274;28;20216;-35
2021/08/15 06:19:33;;;;;;;12.82;6.15;;;24.50;54.00;;;;;;5057670;28;20060;-44
2021/08/15 06:22:00;;;;;;;7.78;6.43;;;24.50;53.80;;;;;;5057600;28;20100;-44
2021/08/15 06:24:26;;;;;;;11.82;6.05;;;24.60;53.90;;;;;;5057305;28;20037;-44
2021/08/15 06:26:51;;;;;;;8.50;6.75;;;24.70;53.30;;;;;;5057001;28;20330;-44
2021/08/15 06:29:17;;;;;;;8.85;5.88;;;24.70;52.80;;;;;;5057612;28;20025;-34
2021/08/15 06:31:43;;;;;;;19.17;6.57;;;24.80;52.00;;;;;;5056892;28;20043;-44
2021/08/15 06:34:09;;;;;;;13.50;5.63;;;24.80;52.10;;;;;;5057270;28;20025;-35
2021/08/15 06:36:34;;;;;;;8.30;6.43;;;24.90;52.10;;;;;;5057110;28;20037;-35
2021/08/15 06:39:00;;;;;;;9.85;6.55;;;24.90;53.20;;;;;;5057053;28;20104;-35
2021/08/15 06:41:25;;;;;;;6.35;5.70;;;24.90;52.40;;;;;;5055880;28;20072;-44
2021/08/15 06:43:51;;;;;;;10.05;6.35;;;25.00;51.70;;;;;;5056976;28;20021;-44
2021/08/15 06:46:17;;;;;;;6.90;5.28;;;25.10;51.10;;;;;;5057226;28;20112;-36
2021/08/15 06:48:45;;;;;;;9.20;6.15;;;25.10;51.40;;;;;;5057053;28;20451;-37
2021/08/15 06:51:12;;;;;;;9.23;5.72;;;25.20;50.60;;;;;;5057393;28;20029;-44
2021/08/15 06:53:38;;;;;;;15.40;8.57;;;25.20;50.70;;;;;;5057066;28;20453;-44
2021/08/15 06:56:09;;;;;;;12.25;8.77;;;25.30;54.30;;;;;;5057098;28;20104;-37
2021/08/15 06:58:36;;;;;;;11.65;8.00;;;25.40;56.00;;;;;;5056633;28;20036;-34
2021/08/15 07:01:02;;;;;;;12.48;8.20;;;25.40;56.50;;;;;;5056589;28;20182;-38
2021/08/15 07:03:28;;;;;;;17.83;9.82;;;25.50;57.70;;;;;;5056339;28;20044;-36
2021/08/15 07:05:54;;;;;;;21.13;8.75;;;25.50;58.00;;;;;;5056871;28;20028;-45
2021/08/15 07:08:19;;;;;;;11.60;9.50;;;25.60;57.90;;;;;;5056308;28;20039;-37
2021/08/15 07:10:45;;;;;;;13.82;9.13;;;25.60;58.20;;;;;;5056799;28;20154;-34
2021/08/15 07:13:12;;;;;;;10.82;9.02;;;25.70;58.40;;;;;;5056543;28;20021;-44
2021/08/15 07:15:38;;;;;;;14.10;11.18;;;25.70;58.60;;;;;;5056280;28;20140;-45
2021/08/15 07:18:04;;;;;;;15.98;10.77;;;25.80;59.20;;;;;;5056562;28;20108;-44
2021/08/15 07:20:30;;;;;;;14.93;12.43;;;25.80;59.70;;;;;;5056529;28;20033;-37
2021/08/15 07:22:57;;;;;;;14.38;11.35;;;25.90;60.00;;;;;;5056230;28;20039;-36
2021/08/15 07:25:25;;;;;;;16.23;12.70;;;25.90;59.00;;;;;;5056166;28;20033;-37
2021/08/15 07:27:50;;;;;;;13.50;9.45;;;26.00;60.10;;;;;;5056412;28;20033;-35
2021/08/15 07:30:16;;;;;;;19.73;14.88;;;26.00;58.50;;;;;;5056395;28;20032;-35
2021/08/15 07:32:51;;;;;;;18.15;12.98;;;26.00;59.20;;;;;;5056122;28;20116;-39
2021/08/15 07:35:17;;;;;;;17.65;13.65;;;26.00;58.70;;;;;;5056335;28;20324;-44
2021/08/15 07:37:42;;;;;;;21.70;14.65;;;26.10;58.50;;;;;;5056232;28;20051;-35
2021/08/15 07:40:09;;;;;;;14.55;10.38;;;26.10;58.30;;;;;;5056387;28;20029;-36
2021/08/15 07:42:34;;;;;;;12.20;9.20;;;26.20;56.90;;;;;;5055835;28;20036;-35
2021/08/15 07:45:00;;;;;;;15.70;11.80;;;26.10;55.90;;;;;;5055782;28;20051;-44
2021/08/15 07:47:26;;;;;;;22.83;13.57;;;26.20;55.70;;;;;;5055540;28;20317;-44
2021/08/15 07:49:51;;;;;;;16.83;13.98;;;26.20;56.00;;;;;;5056013;28;20040;-36
2021/08/15 07:52:17;;;;;;;20.42;12.00;;;26.20;55.40;;;;;;5055459;28;20041;-44
2021/08/15 07:54:43;;;;;;;15.82;12.73;;;26.30;55.50;;;;;;5055805;28;20033;-44
2021/08/15 07:57:08;;;;;;;14.88;11.05;;;26.30;54.80;;;;;;5055752;28;20040;-36
2021/08/15 07:59:34;;;;;;;16.67;10.82;;;26.30;54.80;;;;;;5055646;28;20083;-34
2021/08/15 08:01:59;;;;;;;17.80;12.20;;;26.40;55.20;;;;;;5055608;28;20032;-44
2021/08/15 08:04:25;;;;;;;15.63;11.07;;;26.40;54.90;;;;;;5055405;28;20025;-44
2021/08/15 08:06:51;;;;;;;14.82;12.27;;;26.40;55.00;;;;;;5055454;28;20053;-36
2021/08/15 08:09:17;;;;;;;29.70;20.65;;;26.50;54.40;;;;;;5055766;28;20042;-36
2021/08/15 08:11:43;;;;;;;28.95;25.15;;;26.50;53.90;;;;;;5051612;28;20029;-34
2021/08/15 08:14:08;;;;;;;16.85;14.07;;;26.50;53.70;;;;;;5035298;28;20044;-35
2021/08/15 08:16:34;;;;;;;15.02;11.20;;;26.60;53.70;;;;;;5034952;28;20061;-42
2021/08/15 08:18:59;;;;;;;19.30;12.73;;;26.60;53.50;;;;;;5035462;28;20025;-40
2021/08/15 08:21:25;;;;;;;19.23;11.75;;;26.60;52.70;;;;;;5035523;28;20041;-35
2021/08/15 08:23:51;;;;;;;14.45;11.82;;;26.70;52.80;;;;;;5035237;28;20079;-35
2021/08/15 08:26:17;;;;;;;20.55;12.05;;;26.70;52.80;;;;;;5034973;28;20030;-36
2021/08/15 08:28:43;;;;;;;20.58;14.23;;;26.70;52.30;;;;;;5035546;28;20440;-36
2021/08/15 08:31:08;;;;;;;15.18;11.10;;;26.70;52.00;;;;;;5035421;28;20037;-45
2021/08/15 08:33:34;;;;;;;14.88;10.85;;;26.80;52.20;;;;;;5033943;28;20026;-37
2021/08/15 08:36:00;;;;;;;13.52;11.20;;;26.90;52.20;;;;;;5039706;28;20029;-45
2021/08/15 08:38:26;;;;;;;11.18;8.02;;;26.80;52.50;;;;;;5055050;28;20409;-35
2021/08/15 08:40:53;;;;;;;9.77;7.95;;;26.90;52.10;;;;;;5054823;28;20040;-45
2021/08/15 08:43:20;;;;;;;12.18;8.68;;;26.90;52.20;;;;;;5054879;28;20029;-45
2021/08/15 08:45:47;;;;;;;10.02;8.15;;;26.90;52.00;;;;;;5055086;28;20040;-38
2021/08/15 08:48:15;;;;;;;13.02;10.73;;;27.00;51.80;;;;;;5055170;28;20405;-38
2021/08/15 08:50:41;;;;;;;13.80;8.75;;;27.00;51.30;;;;;;5055053;28;20409;-38
2021/08/15 08:53:07;;;;;;;15.43;10.40;;;27.10;51.10;;;;;;5054520;28;20036;-37
2021/08/15 08:55:33;;;;;;;16.40;11.55;;;27.10;50.90;;;;;;5055147;28;20413;-37
2021/08/15 08:57:59;;;;;;;15.43;11.27;;;27.10;50.80;;;;;;5052368;28;20360;-33
2021/08/15 09:00:24;;;;;;;11.20;8.50;;;27.20;51.00;;;;;;5054697;28;20087;-39
2021/08/15 09:02:56;;;;;;;15.82;9.52;;;27.20;51.50;;;;;;5054609;28;20033;-38
2021/08/15 09:05:31;;;;;;;16.85;10.05;;;27.20;51.20;;;;;;5056750;28;20036;-37
2021/08/15 09:07:58;;;;;;;15.13;8.30;;;27.30;51.40;;;;;;5058542;28;20033;-34
2021/08/15 09:10:38;;;;;;;14.05;9.00;;;27.30;51.50;;;;;;5057757;28;20025;-37
2021/08/15 09:13:09;;;;;;;14.55;9.77;;;27.30;51.20;;;;;;5058417;28;20079;-32
2021/08/15 09:15:36;;;;;;;14.23;10.63;;;27.30;51.00;;;;;;5058076;28;20049;-31
2021/08/15 09:18:02;;;;;;;16.10;9.63;;;27.30;50.90;;;;;;5057859;28;20082;-36
2021/08/15 09:20:43;;;;;;;12.60;9.40;;;27.30;51.10;;;;;;5057707;28;20032;-36
2021/08/15 09:23:19;;;;;;;14.02;10.05;;;27.30;50.90;;;;;;5057685;28;20025;-37
2021/08/15 09:25:44;;;;;;;9.95;8.60;;;27.30;50.60;;;;;;5057812;28;20052;-36
2021/08/15 09:28:10;;;;;;;12.15;8.50;;;27.30;51.00;;;;;;5058157;28;20325;-33
2021/08/15 09:30:36;;;;;;;13.52;8.70;;;27.30;51.00;;;;;;5055532;28;20033;-31
2021/08/15 09:33:10;;;;;;;12.52;8.43;;;27.30;51.10;;;;;;5057769;28;20021;-45
2021/08/15 09:35:35;;;;;;;13.30;9.02;;;27.40;50.70;;;;;;5057889;28;20048;-36
2021/08/15 09:38:21;;;;;;;15.63;11.13;;;27.40;51.00;;;;;;5057524;28;20029;-39
2021/08/15 09:40:47;;;;;;;10.80;9.15;;;27.50;51.30;;;;;;5057850;28;20044;-45
2021/08/15 09:43:26;;;;;;;12.95;8.65;;;27.50;51.00;;;;;;5058019;28;20058;-45
2021/08/15 09:45:55;;;;;;;10.85;7.93;;;27.60;50.70;;;;;;5057893;28;20444;-45
2021/08/15 09:48:34;;;;;;;12.73;9.57;;;27.60;51.10;;;;;;5057846;28;20032;-45
2021/08/15 09:51:02;;;;;;;20.65;10.40;;;27.70;51.10;;;;;;5057970;28;20108;-45
2021/08/15 09:53:28;;;;;;;15.20;8.98;;;27.70;51.20;;;;;;5057792;28;20033;-45
2021/08/15 09:55:56;;;;;;;13.15;10.05;;;27.70;50.70;;;;;;5057770;28;20055;-45
2021/08/15 09:58:22;;;;;;;19.65;9.88;;;27.80;50.80;;;;;;5057746;28;20039;-44
2021/08/15 10:00:48;;;;;;;12.10;10.02;;;27.90;50.70;;;;;;5057604;28;20040;-45
2021/08/15 10:03:15;;;;;;;15.98;10.30;;;28.00;50.60;;;;;;5057622;28;20040;-45
2021/08/15 10:05:45;;;;;;;10.40;7.72;;;28.00;50.90;;;;;;5056481;28;20163;-35
2021/08/15 10:08:10;;;;;;;8.30;7.13;;;28.10;50.30;;;;;;5057768;28;20021;-44
2021/08/15 10:10:37;;;;;;;14.43;8.88;;;28.20;50.00;;;;;;5057564;28;20313;-38
2021/08/15 10:13:04;;;;;;;10.18;6.65;;;28.20;49.70;;;;;;5057422;28;20024;-44
2021/08/15 10:15:31;;;;;;;10.00;7.10;;;28.30;49.10;;;;;;5056446;28;20048;-44
2021/08/15 10:17:58;;;;;;;11.77;8.63;;;28.40;48.80;;;;;;5057230;28;20032;-35
2021/08/15 10:20:31;;;;;;;26.63;13.55;;;28.40;48.90;;;;;;5057395;28;20162;-44
2021/08/15 10:23:06;;;;;;;11.55;8.32;;;28.50;48.70;;;;;;5057024;28;20055;-37
2021/08/15 10:25:40;;;;;;;12.10;8.82;;;28.60;48.40;;;;;;5056536;28;20368;-45
2021/08/15 10:28:06;;;;;;;15.00;9.00;;;28.60;48.50;;;;;;5057294;28;20083;-38
2021/08/15 10:30:32;;;;;;;12.85;7.82;;;28.60;48.80;;;;;;5057132;28;20036;-37
2021/08/15 10:32:58;;;;;;;9.82;6.55;;;28.70;48.60;;;;;;5057152;28;20025;-34
2021/08/15 10:35:27;;;;;;;9.52;6.80;;;28.70;47.70;;;;;;5056505;28;20029;-35
2021/08/15 10:37:55;;;;;;;9.98;7.07;;;28.80;47.50;;;;;;5056826;28;20040;-35
2021/08/15 10:40:42;;;;;;;8.93;6.88;;;28.80;47.60;;;;;;5056969;28;20040;-44
2021/08/15 10:43:35;;;;;;;9.85;6.13;;;28.90;46.90;;;;;;5056451;28;20037;-44
2021/08/15 10:46:15;;;;;;;9.38;5.97;;;28.90;46.00;;;;;;5056780;28;20033;-44
2021/08/15 10:48:52;;;;;;;10.43;5.93;;;29.00;46.10;;;;;;5056699;28;20033;-44
2021/08/15 10:51:43;;;;;;;8.55;5.88;;;29.00;45.30;;;;;;5056756;28;20029;-36
2021/08/15 10:54:27;;;;;;;11.02;5.93;;;29.10;46.10;;;;;;5056916;28;20033;-44
2021/08/15 10:56:59;;;;;;;11.25;6.50;;;29.10;46.10;;;;;;5056252;28;20039;-37
2021/08/15 10:59:36;;;;;;;8.30;6.00;;;29.10;45.80;;;;;;5056450;28;20058;-44
2021/08/15 11:02:14;;;;;;;6.45;5.75;;;29.20;45.90;;;;;;5055019;28;20425;-44
2021/08/15 11:04:52;;;;;;;7.70;5.78;;;29.20;45.70;;;;;;5056324;28;20086;-44
2021/08/15 11:07:39;;;;;;;9.40;5.50;;;29.30;45.70;;;;;;5056564;28;20033;-44
2021/08/15 11:10:07;;;;;;;7.60;5.40;;;29.40;44.40;;;;;;5056562;28;20075;-44
2021/08/15 11:12:32;;;;;;;10.35;6.30;;;29.50;43.90;;;;;;5056287;28;20086;-44
2021/08/15 11:14:59;;;;;;;7.45;4.90;;;29.50;45.50;;;;;;5056041;28;20351;-44
2021/08/15 11:17:27;;;;;;;8.07;6.00;;;29.60;44.70;;;;;;5055750;28;20116;-44
2021/08/15 11:19:53;;;;;;;7.25;6.05;;;29.60;44.40;;;;;;5056140;28;20024;-35
2021/08/15 11:22:21;;;;;;;7.68;5.32;;;29.70;44.40;;;;;;5056071;28;20045;-36
2021/08/15 11:24:50;;;;;;;8.68;5.97;;;29.80;44.50;;;;;;5055709;28;20325;-44
2021/08/15 11:27:23;;;;;;;8.57;4.90;;;29.80;44.00;;;;;;5055191;28;20473;-37
2021/08/15 11:29:49;;;;;;;8.82;5.85;;;29.90;44.70;;;;;;5055098;28;20028;-37
2021/08/15 11:32:21;;;;;;;7.85;5.45;;;30.00;44.50;;;;;;5055832;28;20036;-35
2021/08/15 11:34:57;;;;;;;7.30;5.25;;;30.00;44.50;;;;;;5056297;28;20033;-39
2021/08/15 11:37:35;;;;;;;7.30;5.10;;;30.10;44.10;;;;;;5055798;28;20025;-44
2021/08/15 11:40:21;;;;;;;8.70;6.50;;;30.20;44.00;;;;;;5056109;28;20122;-45
2021/08/15 11:43:00;;;;;;;8.05;5.43;;;30.30;43.80;;;;;;5055952;28;20100;-45
2021/08/15 11:45:31;;;;;;;6.85;6.05;;;30.30;43.80;;;;;;5055785;28;20034;-44
2021/08/15 11:48:04;;;;;;;11.55;5.32;;;30.40;44.10;;;;;;5055833;28;20037;-45
2021/08/15 11:50:32;;;;;;;6.78;4.82;;;30.50;43.60;;;;;;5055956;28;20126;-44
2021/08/15 11:52:58;;;;;;;5.97;4.82;;;30.60;43.10;;;;;;5055516;28;20036;-44
2021/08/15 11:55:27;;;;;;;9.57;5.82;;;30.70;42.80;;;;;;5055162;28;20033;-45
2021/08/15 11:57:58;;;;;;;8.43;5.25;;;30.80;41.70;;;;;;5055850;28;20032;-44
2021/08/15 12:00:34;;;;;;;7.72;5.38;;;31.00;41.90;;;;;;5055894;28;20037;-38
2021/08/15 12:03:07;;;;;;;8.95;5.50;;;31.10;42.10;;;;;;5055695;28;20112;-44
2021/08/15 12:05:47;;;;;;;14.35;8.50;;;31.20;41.60;;;;;;5055631;28;20039;-44
2021/08/15 12:08:15;;;;;;;11.20;8.10;;;31.40;41.20;;;;;;5055299;28;20025;-44
2021/08/15 12:10:51;;;;;;;12.88;9.55;;;31.50;40.80;;;;;;5055894;28;20335;-33
2021/08/15 12:13:31;;;;;;;11.05;8.57;;;31.70;41.00;;;;;;5055703;28;20029;-37
2021/08/15 12:16:03;;;;;;;7.60;5.80;;;31.80;41.00;;;;;;5055455;28;20049;-38
2021/08/15 12:18:40;;;;;;;8.02;5.97;;;32.00;40.80;;;;;;5055374;28;20109;-37
2021/08/15 12:21:30;;;;;;;9.57;8.38;;;32.20;40.20;;;;;;5055871;28;20056;-34
2021/08/15 12:24:16;;;;;;;11.00;7.25;;;32.40;40.30;;;;;;5054950;28;20074;-37
2021/08/15 12:27:04;;;;;;;8.57;6.85;;;32.50;39.30;;;;;;5055038;28;20096;-33
2021/08/15 12:29:37;;;;;;;7.53;6.05;;;32.60;39.40;;;;;;5055336;28;20021;-37
2021/08/15 12:32:32;;;;;;;9.23;6.32;;;32.80;39.10;;;;;;5055515;28;20108;-37
2021/08/15 12:35:00;;;;;;;9.60;6.00;;;32.90;39.20;;;;;;5055550;28;20037;-38
2021/08/15 12:37:28;;;;;;;9.35;5.95;;;33.10;38.50;;;;;;5055223;28;20033;-37
2021/08/15 12:40:04;;;;;;;9.60;8.60;;;33.30;38.30;;;;;;5056974;28;20412;-37